createdAt,value
2022-09-22T00:01:24.851Z,2.25
2022-09-22T00:03:58.070Z,1.75
2022-09-22T00:06:33.328Z,2.25
2022-09-22T00:09:01.842Z,1.83
2022-09-22T00:11:30.981Z,1.80
2022-09-22T00:14:05.046Z,2.10
2022-09-22T00:16:39.014Z,2.08
2022-09-22T00:19:10.511Z,1.80
2022-09-22T00:21:37.175Z,1.70
2022-09-22T00:24:07.064Z,1.80
2022-09-22T00:26:35.921Z,1.52
2022-09-22T00:29:02.957Z,1.80
2022-09-22T00:31:30.074Z,1.83
2022-09-22T00:33:57.417Z,1.63
2022-09-22T00:36:26.687Z,1.40
2022-09-22T00:38:56.375Z,1.50
2022-09-22T00:41:27.660Z,1.98
2022-09-22T00:44:22.231Z,1.50
2022-09-22T00:47:06.645Z,1.60
2022-09-22T00:49:39.435Z,1.50
2022-09-22T00:52:06.715Z,1.60
2022-09-22T00:54:34.705Z,2.08
2022-09-22T00:57:08.045Z,1.30
2022-09-22T00:59:36.288Z,1.27
2022-09-22T01:02:03.298Z,1.73
2022-09-22T01:04:30.467Z,1.67
2022-09-22T01:06:59.023Z,1.60
2022-09-22T01:09:26.950Z,1.55
2022-09-22T01:11:53.685Z,1.60
2022-09-22T01:14:29.396Z,1.45
2022-09-22T01:17:15.563Z,1.42
2022-09-22T01:20:03.395Z,1.60
2022-09-22T01:22:49.425Z,1.58
2022-09-22T01:28:22.693Z,1.40
2022-09-22T01:30:59.595Z,1.45
2022-09-22T01:33:32.251Z,1.58
2022-09-22T01:36:23.200Z,1.42
2022-09-22T01:39:00.899Z,1.48
2022-09-22T01:41:59.060Z,1.50
2022-09-22T01:44:36.281Z,1.30
2022-09-22T01:47:13.342Z,1.30
2022-09-22T01:49:45.473Z,1.30
2022-09-22T01:52:22.674Z,1.25
2022-09-22T01:55:05.285Z,1.52
2022-09-22T01:57:38.395Z,1.30
2022-09-22T02:00:08.312Z,1.60
2022-09-22T02:02:40.697Z,1.63
2022-09-22T02:05:18.481Z,1.48
2022-09-22T02:07:50.100Z,1.30
2022-09-22T02:10:20.387Z,1.20
2022-09-22T02:12:49.176Z,1.70
2022-09-22T02:15:34.790Z,1.50
2022-09-22T02:18:09.282Z,1.98
2022-09-22T02:20:36.489Z,1.60
2022-09-22T02:23:03.161Z,1.50
2022-09-22T02:25:30.319Z,1.90
2022-09-22T02:27:58.294Z,1.60
2022-09-22T02:30:26.028Z,1.60
2022-09-22T02:32:55.042Z,1.80
2022-09-22T02:35:23.984Z,1.50
2022-09-22T02:38:23.623Z,1.40
2022-09-22T02:40:56.129Z,1.50
2022-09-22T02:43:41.895Z,1.55
2022-09-22T02:46:41.716Z,1.35
2022-09-22T02:49:13.728Z,1.45
2022-09-22T02:51:41.992Z,1.70
2022-09-22T02:54:08.705Z,1.38
2022-09-22T02:56:35.552Z,1.73
2022-09-22T02:59:02.130Z,1.50
2022-09-22T03:01:28.893Z,1.23
2022-09-22T03:03:55.531Z,1.50
2022-09-22T03:06:22.202Z,1.25
2022-09-22T03:08:48.942Z,1.45
2022-09-22T03:11:15.616Z,1.15
2022-09-22T03:13:42.339Z,1.42
2022-09-22T03:16:09.505Z,1.08
2022-09-22T03:18:36.210Z,1.50
2022-09-22T03:21:03.018Z,1.00
2022-09-22T03:23:29.977Z,1.17
2022-09-22T03:25:56.680Z,1.20
2022-09-22T03:28:23.367Z,1.17
2022-09-22T03:30:50.188Z,1.35
2022-09-22T03:33:16.869Z,1.23
2022-09-22T03:35:43.597Z,1.30
2022-09-22T03:38:11.281Z,1.27
2022-09-22T03:40:37.963Z,1.38
2022-09-22T03:43:04.721Z,1.13
2022-09-22T03:45:31.441Z,1.65
2022-09-22T03:47:59.039Z,1.17
2022-09-22T03:50:26.087Z,1.20
2022-09-22T03:52:52.975Z,1.35
2022-09-22T03:55:19.646Z,1.20
2022-09-22T03:57:46.988Z,1.42
2022-09-22T04:00:14.159Z,1.45
2022-09-22T04:02:41.470Z,1.30
2022-09-22T04:05:08.652Z,1.48
2022-09-22T04:07:35.487Z,1.23
2022-09-22T04:10:03.231Z,1.55
2022-09-22T04:12:29.964Z,1.83
2022-09-22T04:14:56.749Z,3.42
2022-09-22T04:17:23.408Z,1.67
2022-09-22T04:19:50.099Z,1.30
2022-09-22T04:22:16.889Z,1.58
2022-09-22T04:24:43.538Z,2.13
2022-09-22T04:27:25.421Z,1.40
2022-09-22T04:29:52.363Z,1.45
2022-09-22T04:32:19.254Z,1.55
2022-09-22T04:34:45.903Z,1.67
2022-09-22T04:37:12.903Z,1.50
2022-09-22T04:39:39.621Z,2.20
2022-09-22T04:42:08.936Z,2.20
2022-09-22T04:44:35.701Z,1.83
2022-09-22T04:47:02.743Z,2.05
2022-09-22T04:49:29.418Z,1.90
2022-09-22T04:51:56.183Z,2.13
2022-09-22T04:54:22.852Z,1.98
2022-09-22T04:56:49.614Z,2.00
2022-09-22T04:59:16.559Z,2.10
2022-09-22T05:01:43.338Z,1.98
2022-09-22T05:04:10.098Z,2.17
2022-09-22T05:06:37.035Z,1.77
2022-09-22T05:09:04.141Z,2.13
2022-09-22T05:11:31.021Z,2.13
2022-09-22T05:13:58.558Z,2.63
2022-09-22T05:16:25.879Z,2.42
2022-09-22T05:18:52.716Z,2.42
2022-09-22T05:21:19.740Z,2.80
2022-09-22T05:23:46.880Z,2.45
2022-09-22T05:26:13.948Z,2.50
2022-09-22T05:28:40.883Z,2.90
2022-09-22T05:31:07.612Z,2.55
2022-09-22T05:33:34.364Z,3.38
2022-09-22T05:36:01.165Z,3.28
2022-09-22T05:38:27.804Z,2.78
2022-09-22T05:40:54.460Z,3.00
2022-09-22T05:43:21.375Z,2.45
2022-09-22T05:45:48.121Z,2.80
2022-09-22T05:48:15.064Z,2.50
2022-09-22T05:50:43.664Z,2.58
2022-09-22T05:53:10.942Z,2.72
2022-09-22T05:55:39.697Z,2.80
2022-09-22T05:58:07.151Z,2.60
2022-09-22T06:00:33.848Z,3.10
2022-09-22T06:03:00.753Z,3.05
2022-09-22T06:05:27.758Z,2.65
2022-09-22T06:08:03.632Z,2.42
2022-09-22T06:10:35.584Z,2.63
2022-09-22T06:13:06.889Z,3.67
2022-09-22T06:15:35.981Z,2.60
2022-09-22T06:18:07.499Z,2.50
2022-09-22T06:20:35.212Z,2.22
2022-09-22T06:23:02.270Z,2.42
2022-09-22T06:25:29.598Z,2.00
2022-09-22T06:28:05.561Z,2.17
2022-09-22T06:30:36.506Z,2.00
2022-09-22T06:33:03.519Z,2.03
2022-09-22T06:35:36.552Z,2.35
2022-09-22T06:38:06.235Z,1.95
2022-09-22T06:40:36.227Z,2.00
2022-09-22T06:43:12.924Z,1.90
2022-09-22T06:45:40.506Z,2.00
2022-09-22T06:48:10.408Z,1.98
2022-09-22T06:50:38.197Z,2.83
2022-09-22T06:53:08.128Z,2.40
2022-09-22T06:56:12.647Z,2.15
2022-09-22T06:59:05.528Z,2.00
2022-09-22T07:01:28.338Z,2.10
2022-09-22T07:03:55.333Z,2.08
2022-09-22T07:06:22.356Z,1.95
2022-09-22T07:08:49.464Z,2.05
2022-09-22T07:11:17.788Z,2.35
2022-09-22T07:13:45.572Z,2.28
2022-09-22T07:16:17.686Z,2.40
2022-09-22T07:18:50.970Z,2.70
2022-09-22T07:21:30.678Z,2.22
2022-09-22T07:23:58.000Z,2.78
2022-09-22T07:26:28.905Z,2.53
2022-09-22T07:28:59.144Z,1.92
2022-09-22T07:31:28.993Z,2.00
2022-09-22T07:33:56.533Z,2.25
2022-09-22T07:36:26.149Z,2.30
2022-09-22T07:38:55.124Z,2.25
2022-09-22T07:41:24.604Z,1.88
2022-09-22T07:43:53.262Z,2.20
2022-09-22T07:46:20.467Z,2.00
2022-09-22T07:48:47.905Z,2.13
2022-09-22T07:51:23.168Z,1.90
2022-09-22T07:53:57.769Z,1.88
2022-09-22T07:56:27.799Z,1.88
2022-09-22T07:58:55.163Z,2.08
2022-09-22T08:01:24.382Z,1.55
2022-09-22T08:03:52.128Z,2.00
2022-09-22T08:06:23.601Z,1.85
2022-09-22T08:08:55.282Z,1.45
2022-09-22T08:11:25.459Z,1.83
2022-09-22T08:13:57.123Z,2.33
2022-09-22T08:16:28.166Z,1.52
2022-09-22T08:18:57.077Z,1.92
2022-09-22T08:21:28.464Z,2.15
2022-09-22T08:23:55.147Z,1.38
2022-09-22T08:26:22.806Z,1.23
2022-09-22T08:28:53.902Z,1.52
2022-09-22T08:31:21.941Z,1.73
2022-09-22T08:33:49.964Z,1.92
2022-09-22T08:36:16.956Z,2.03
2022-09-22T08:38:49.228Z,1.98
2022-09-22T08:41:31.942Z,2.15
2022-09-22T08:44:03.127Z,1.38
2022-09-22T08:46:39.486Z,1.40
2022-09-22T08:49:43.159Z,1.55
2022-09-22T08:52:31.405Z,2.47
2022-09-22T08:54:59.769Z,2.00
2022-09-22T08:57:44.475Z,1.95
2022-09-22T09:00:17.294Z,1.38
2022-09-22T09:03:14.010Z,1.27
2022-09-22T09:06:09.139Z,1.70
2022-09-22T09:09:05.336Z,1.48
2022-09-22T09:12:16.786Z,1.58
2022-09-22T09:15:01.897Z,1.73
2022-09-22T09:17:30.839Z,1.47
2022-09-22T09:20:24.184Z,1.10
2022-09-22T09:22:55.850Z,1.13
2022-09-22T09:25:27.773Z,1.30
2022-09-22T09:28:00.288Z,1.00
2022-09-22T09:30:32.481Z,1.02
2022-09-22T09:33:04.559Z,0.75
2022-09-22T09:35:52.024Z,0.85
2022-09-22T09:38:31.541Z,0.90
2022-09-22T09:41:28.468Z,0.98
2022-09-22T09:43:56.158Z,0.80
2022-09-22T09:46:33.163Z,0.80
2022-09-22T09:49:14.919Z,1.00
2022-09-22T09:51:45.772Z,0.65
2022-09-22T09:54:17.313Z,0.77
2022-09-22T09:57:02.468Z,0.93
2022-09-22T09:59:47.895Z,0.80
2022-09-22T10:02:27.918Z,1.08
2022-09-22T10:04:59.976Z,1.05
2022-09-22T10:07:39.702Z,1.10
2022-09-22T10:10:31.929Z,1.05
2022-09-22T10:13:24.675Z,1.73
2022-09-22T10:16:21.151Z,1.55
2022-09-22T10:19:01.923Z,1.48
2022-09-22T10:21:28.955Z,1.38
2022-09-22T10:23:58.143Z,1.20
2022-09-22T10:26:30.614Z,1.15
2022-09-22T10:29:12.654Z,1.23
2022-09-22T10:31:41.694Z,1.35
2022-09-22T10:34:31.267Z,1.40
2022-09-22T10:37:00.834Z,1.52
2022-09-22T10:40:01.208Z,1.10
2022-09-22T10:42:51.332Z,0.90
2022-09-22T10:45:19.560Z,0.82
2022-09-22T10:48:03.513Z,0.93
2022-09-22T10:50:48.286Z,1.48
2022-09-22T10:53:50.966Z,1.20
2022-09-22T10:56:32.292Z,1.42
2022-09-22T10:59:26.232Z,1.20
2022-09-22T11:01:58.958Z,1.52
2022-09-22T11:04:47.322Z,1.50
2022-09-22T11:08:11.118Z,1.40
2022-09-22T11:11:00.794Z,1.50
2022-09-22T11:13:59.946Z,1.42
2022-09-22T11:16:38.818Z,1.48
2022-09-22T11:19:17.154Z,1.20
2022-09-22T11:22:15.524Z,2.33
2022-09-22T11:24:53.831Z,1.42
2022-09-22T11:27:36.408Z,1.80
2022-09-22T11:30:11.592Z,1.90
2022-09-22T11:35:27.194Z,1.88
2022-09-22T11:38:17.943Z,1.30
2022-09-22T11:41:16.104Z,1.42
2022-09-22T11:44:01.671Z,1.60
2022-09-22T11:46:47.286Z,1.63
2022-09-22T11:51:56.489Z,1.58
2022-09-22T11:54:47.714Z,2.22
2022-09-22T11:57:23.657Z,2.30
2022-09-22T11:59:59.595Z,1.52
2022-09-22T12:02:32.403Z,1.75
2022-09-22T12:05:20.904Z,1.75
2022-09-22T12:07:59.621Z,1.80
2022-09-22T12:10:35.475Z,1.67
2022-09-22T12:13:04.414Z,2.80
2022-09-22T12:15:40.240Z,1.50
2022-09-22T12:18:22.116Z,2.08
2022-09-22T12:21:13.348Z,1.77
2022-09-22T12:23:51.460Z,1.70
2022-09-22T12:26:33.566Z,1.80
2022-09-22T12:32:06.133Z,1.80
2022-09-22T12:34:43.089Z,2.20
2022-09-22T12:37:34.071Z,2.33
2022-09-22T12:40:06.421Z,1.58
2022-09-22T12:42:37.897Z,1.98
2022-09-22T12:45:35.041Z,2.35
2022-09-22T12:48:24.763Z,1.60
2022-09-22T12:50:52.278Z,1.70
2022-09-22T12:53:21.971Z,1.80
2022-09-22T12:55:53.973Z,1.77
2022-09-22T12:58:20.729Z,1.90
2022-09-22T13:00:52.676Z,1.60
2022-09-22T13:03:25.778Z,2.42
2022-09-22T13:06:00.738Z,2.22
2022-09-22T13:11:07.607Z,1.85
2022-09-22T13:13:36.877Z,2.63
2022-09-22T13:16:15.903Z,1.40
2022-09-22T13:18:54.032Z,1.60
2022-09-22T13:21:26.559Z,1.67
2022-09-22T13:24:03.665Z,1.55
2022-09-22T13:26:34.496Z,1.67
2022-09-22T13:29:17.719Z,1.60
2022-09-22T13:31:45.790Z,1.70
2022-09-22T13:34:32.309Z,1.40
2022-09-22T13:37:24.399Z,2.17
2022-09-22T13:39:54.124Z,1.90
2022-09-22T13:42:32.421Z,1.92
2022-09-22T13:45:03.782Z,1.50
2022-09-22T13:47:31.247Z,1.17
2022-09-22T13:50:06.037Z,2.05
2022-09-22T13:52:36.221Z,1.80
2022-09-22T13:55:17.711Z,2.42
2022-09-22T13:57:45.230Z,1.50
2022-09-22T14:00:24.599Z,1.50
2022-09-22T14:02:52.114Z,1.70
2022-09-22T14:05:23.619Z,1.50
2022-09-22T14:08:10.694Z,1.80
2022-09-22T14:10:39.845Z,1.85
2022-09-22T14:13:36.380Z,2.22
2022-09-22T14:16:10.041Z,1.70
2022-09-22T14:18:42.219Z,1.50
2022-09-22T14:21:11.002Z,2.10
2022-09-22T14:23:47.676Z,1.90
2022-09-22T14:26:38.929Z,1.50
2022-09-22T14:29:32.377Z,1.85
2022-09-22T14:32:14.647Z,1.73
2022-09-22T14:34:47.560Z,1.90
2022-09-22T14:37:24.070Z,1.80
2022-09-22T14:39:53.095Z,1.58
2022-09-22T14:42:25.685Z,1.92
2022-09-22T14:44:53.781Z,2.20
2022-09-22T14:47:30.883Z,2.10
2022-09-22T14:50:37.580Z,1.83
